createdAt,value
2019-02-17T00:02:41.751Z,65.90
2019-02-17T00:07:53.515Z,66.00
2019-02-17T00:13:04.744Z,66.00
2019-02-17T00:18:16.753Z,66.10
2019-02-17T00:23:16.416Z,65.90
2019-02-17T00:28:35.837Z,66.00
2019-02-17T00:33:47.340Z,66.10
2019-02-17T00:38:58.804Z,66.20
2019-02-17T00:44:10.591Z,66.30
2019-02-17T00:49:22.247Z,66.40
2019-02-17T00:54:34.236Z,66.40
2019-02-17T00:59:45.907Z,66.40
2019-02-17T01:04:57.527Z,66.60
2019-02-17T01:10:09.138Z,66.60
2019-02-17T01:15:20.377Z,66.90
2019-02-17T01:20:32.448Z,67.10
2019-02-17T01:25:44.477Z,67.00
2019-02-17T01:30:55.873Z,68.20
2019-02-17T01:36:07.913Z,67.00
2019-02-17T01:41:19.899Z,67.20
2019-02-17T01:46:31.919Z,67.20
2019-02-17T01:51:43.715Z,67.20
2019-02-17T01:56:54.964Z,67.30
2019-02-17T02:02:06.909Z,67.50
2019-02-17T02:07:19.088Z,67.80
2019-02-17T02:12:31.051Z,67.40
2019-02-17T02:17:42.485Z,67.40
2019-02-17T02:22:52.453Z,67.30
2019-02-17T02:28:11.600Z,67.50
2019-02-17T02:33:23.097Z,67.60
2019-02-17T02:38:35.143Z,67.40
2019-02-17T02:43:47.284Z,67.50
2019-02-17T02:48:58.869Z,67.30
2019-02-17T02:54:10.725Z,68.80
2019-02-17T02:59:22.783Z,68.80
2019-02-17T03:04:34.156Z,69.10
2019-02-17T03:09:45.556Z,68.90
2019-02-17T03:14:57.163Z,69.10
2019-02-17T03:20:08.421Z,69.40
2019-02-17T03:25:20.507Z,69.40
2019-02-17T03:30:32.570Z,69.40
2019-02-17T03:35:44.559Z,69.40
2019-02-17T03:40:56.896Z,69.40
2019-02-17T03:46:08.079Z,69.20
2019-02-17T03:51:20.144Z,69.50
2019-02-17T03:56:32.297Z,69.70
2019-02-17T04:01:43.978Z,69.80
2019-02-17T04:06:55.616Z,70.00
2019-02-17T04:12:07.780Z,69.80
2019-02-17T04:17:19.908Z,69.70
2019-02-17T04:22:32.027Z,69.80
2019-02-17T04:27:44.435Z,69.70
2019-02-17T04:32:56.591Z,69.60
2019-02-17T04:38:08.552Z,69.80
2019-02-17T04:43:20.411Z,70.10
2019-02-17T04:48:32.283Z,70.10
2019-02-17T04:53:43.795Z,70.00
2019-02-17T04:58:56.107Z,70.00
2019-02-17T05:04:08.249Z,70.20
2019-02-17T05:09:21.148Z,70.20
2019-02-17T05:14:31.164Z,70.40
2019-02-17T05:19:50.135Z,70.50
2019-02-17T05:25:01.504Z,70.60
2019-02-17T05:30:13.659Z,70.80
2019-02-17T05:35:25.557Z,70.80
2019-02-17T05:40:37.567Z,70.80
2019-02-17T05:45:49.259Z,71.00
2019-02-17T05:51:01.347Z,71.00
2019-02-17T05:56:13.307Z,71.00
2019-02-17T06:01:25.239Z,71.10
2019-02-17T06:06:36.467Z,71.10
2019-02-17T06:11:48.272Z,71.20
2019-02-17T06:16:59.651Z,71.20
2019-02-17T06:22:11.749Z,71.00
2019-02-17T06:27:11.394Z,71.30
2019-02-17T06:32:11.304Z,71.20
2019-02-17T06:37:23.244Z,71.20
2019-02-17T06:42:35.371Z,71.40
2019-02-17T06:47:46.842Z,71.30
2019-02-17T06:52:58.820Z,71.40
2019-02-17T06:58:10.831Z,71.60
2019-02-17T07:03:22.897Z,71.60
2019-02-17T07:08:35.263Z,71.70
2019-02-17T07:13:46.701Z,72.00
2019-02-17T07:18:57.962Z,71.80
2019-02-17T07:24:09.383Z,71.90
2019-02-17T07:29:20.655Z,71.90
2019-02-17T07:34:32.464Z,71.90
2019-02-17T07:39:44.555Z,72.10
2019-02-17T07:44:56.751Z,72.10
2019-02-17T07:50:08.779Z,72.40
2019-02-17T07:55:20.142Z,72.50
2019-02-17T08:00:32.275Z,72.60
2019-02-17T08:05:43.959Z,72.70
2019-02-17T08:11:03.794Z,72.90
2019-02-17T08:16:08.755Z,72.90
2019-02-17T08:21:20.748Z,72.70
2019-02-17T08:26:32.456Z,72.90
2019-02-17T08:31:44.051Z,72.90
2019-02-17T08:36:55.998Z,72.90
2019-02-17T08:42:07.944Z,73.00
2019-02-17T08:47:19.883Z,72.70
2019-02-17T08:52:31.999Z,73.10
2019-02-17T08:57:43.379Z,73.20
2019-02-17T09:02:55.356Z,73.20
2019-02-17T09:08:07.553Z,73.10
2019-02-17T09:13:19.664Z,73.40
2019-02-17T09:18:31.307Z,73.50
2019-02-17T09:23:43.648Z,72.30
2019-02-17T09:28:55.615Z,72.50
2019-02-17T09:34:07.738Z,72.40
2019-02-17T09:39:19.298Z,72.40
2019-02-17T09:44:31.496Z,72.50
2019-02-17T09:49:43.274Z,72.50
2019-02-17T09:54:55.257Z,72.20
2019-02-17T10:00:07.027Z,72.20
2019-02-17T10:05:18.287Z,71.50
2019-02-17T10:10:29.924Z,71.30
2019-02-17T10:15:41.901Z,71.20
2019-02-17T10:20:53.195Z,70.80
2019-02-17T10:26:04.413Z,70.70
2019-02-17T10:31:17.522Z,70.40
2019-02-17T10:36:29.682Z,70.10
2019-02-17T10:41:41.192Z,70.20
2019-02-17T10:46:53.271Z,69.70
2019-02-17T10:52:05.055Z,70.10
2019-02-17T10:57:16.803Z,69.70
2019-02-17T11:02:28.479Z,69.90
2019-02-17T11:07:40.570Z,69.20
2019-02-17T11:12:51.927Z,69.90
2019-02-17T11:18:04.159Z,69.30
2019-02-17T11:23:16.306Z,68.90
2019-02-17T11:28:27.649Z,68.60
2019-02-17T11:33:39.727Z,68.50
2019-02-17T11:38:51.371Z,68.70
2019-02-17T11:44:03.466Z,68.60
2019-02-17T11:49:14.942Z,67.20
2019-02-17T11:54:26.724Z,68.50
2019-02-17T11:59:38.025Z,66.90
2019-02-17T12:04:50.131Z,66.00
2019-02-17T12:10:02.063Z,66.40
2019-02-17T12:15:14.215Z,66.70
2019-02-17T12:26:35.679Z,67.50
2019-02-17T12:31:47.321Z,67.40
2019-02-17T12:36:59.408Z,67.60
2019-02-17T12:42:10.679Z,68.00
2019-02-17T12:47:22.479Z,68.00
2019-02-17T12:52:34.119Z,68.30
2019-02-17T12:57:46.433Z,68.20
2019-02-17T13:02:57.743Z,67.60
2019-02-17T13:08:09.011Z,68.10
2019-02-17T13:13:20.226Z,68.10
2019-02-17T13:18:31.499Z,68.70
2019-02-17T13:23:43.384Z,69.30
2019-02-17T13:28:55.207Z,68.50
2019-02-17T13:34:07.980Z,67.40
2019-02-17T13:39:19.651Z,67.40
2019-02-17T13:44:31.244Z,68.40
2019-02-17T13:49:43.209Z,65.90
2019-02-17T13:54:55.306Z,66.80
2019-02-17T14:00:07.475Z,67.50
2019-02-17T14:05:19.547Z,67.50
2019-02-17T14:10:31.559Z,68.60
2019-02-17T14:15:42.950Z,68.80
2019-02-17T14:20:54.311Z,66.30
2019-02-17T14:26:06.064Z,66.10
2019-02-17T14:31:18.015Z,66.40
2019-02-17T14:36:29.294Z,65.80
2019-02-17T14:41:41.335Z,67.20
2019-02-17T14:46:53.109Z,68.00
2019-02-17T14:52:05.225Z,66.70
2019-02-17T14:57:16.767Z,68.00
2019-02-17T15:02:28.370Z,67.80
2019-02-17T15:07:40.335Z,68.10
2019-02-17T15:12:51.767Z,67.30
2019-02-17T15:18:03.808Z,68.00
2019-02-17T15:23:15.467Z,67.60
2019-02-17T15:28:27.327Z,68.30
2019-02-17T15:33:38.850Z,68.10
2019-02-17T15:38:50.099Z,68.10
2019-02-17T15:44:02.189Z,67.70
2019-02-17T15:49:14.103Z,68.10
2019-02-17T15:54:25.708Z,67.70
2019-02-17T15:59:37.495Z,68.00
2019-02-17T16:04:49.559Z,67.60
2019-02-17T16:10:03.738Z,68.00
2019-02-17T16:15:14.569Z,67.90
2019-02-17T16:20:26.303Z,68.30
2019-02-17T16:25:37.612Z,68.20
2019-02-17T16:30:49.083Z,67.90
2019-02-17T16:36:01.172Z,68.40
2019-02-17T16:41:12.500Z,68.60
2019-02-17T16:46:24.537Z,68.30
2019-02-17T16:51:36.205Z,68.20
2019-02-17T16:56:48.203Z,68.40
2019-02-17T17:02:00.375Z,68.60
2019-02-17T17:07:11.835Z,68.80
2019-02-17T17:12:24.921Z,68.90
2019-02-17T17:17:36.596Z,68.90
2019-02-17T17:22:49.683Z,68.80
2019-02-17T17:28:01.564Z,69.00
2019-02-17T17:33:01.215Z,68.90
2019-02-17T17:38:20.163Z,69.00
2019-02-17T17:43:33.944Z,69.30
2019-02-17T17:48:45.531Z,69.30
2019-02-17T17:58:54.383Z,69.20
2019-02-17T18:04:09.375Z,69.60
2019-02-17T18:09:20.924Z,69.60
2019-02-17T18:14:32.988Z,69.80
2019-02-17T18:19:45.055Z,69.90
2019-02-17T18:24:56.335Z,70.00
2019-02-17T18:30:06.915Z,70.10
2019-02-17T18:35:20.071Z,70.30
2019-02-17T18:40:31.644Z,70.30
2019-02-17T18:45:43.591Z,70.30
2019-02-17T18:50:59.176Z,70.40
2019-02-17T18:56:08.567Z,70.60
2019-02-17T19:01:20.436Z,70.60
2019-02-17T19:06:32.372Z,70.80
2019-02-17T19:11:44.288Z,70.70
2019-02-17T19:16:55.636Z,70.60
2019-02-17T19:22:08.636Z,70.60
2019-02-17T19:27:20.065Z,70.60
2019-02-17T19:32:32.203Z,70.80
2019-02-17T19:37:44.157Z,71.00
2019-02-17T19:42:56.332Z,71.10
2019-02-17T19:48:08.151Z,71.40
2019-02-17T19:53:19.899Z,71.40
2019-02-17T19:58:31.907Z,71.60
2019-02-17T20:04:02.288Z,71.70
2019-02-17T20:09:20.046Z,71.70
2019-02-17T20:14:31.812Z,71.70
2019-02-17T20:19:43.999Z,71.90
2019-02-17T20:24:55.827Z,71.90
2019-02-17T20:30:06.103Z,72.00
2019-02-17T20:35:25.003Z,72.30
2019-02-17T20:40:36.688Z,72.20
2019-02-17T20:45:48.323Z,72.10
2019-02-17T20:50:59.751Z,72.50
2019-02-17T20:56:11.845Z,72.50
2019-02-17T21:01:23.404Z,72.60
2019-02-17T21:06:35.203Z,72.50
2019-02-17T21:11:46.911Z,72.30
2019-02-17T21:16:59.351Z,72.00
2019-02-17T21:22:11.839Z,71.90
2019-02-17T21:27:23.369Z,73.10
2019-02-17T21:32:34.799Z,72.50
2019-02-17T21:37:47.200Z,72.50
2019-02-17T21:42:59.030Z,72.70
2019-02-17T21:48:11.216Z,72.40
2019-02-17T21:53:23.067Z,72.40
2019-02-17T21:58:35.388Z,72.30
2019-02-17T22:03:47.060Z,72.20
2019-02-17T22:08:59.035Z,72.30
2019-02-17T22:14:10.975Z,72.30
2019-02-17T22:19:20.933Z,72.30
2019-02-17T22:24:32.630Z,72.30
2019-02-17T22:29:44.408Z,72.20
2019-02-17T22:34:55.951Z,72.30
2019-02-17T22:40:08.065Z,72.30
2019-02-17T22:45:08.368Z,72.70
2019-02-17T22:50:24.259Z,72.70
2019-02-17T22:55:36.092Z,72.70
2019-02-17T23:01:06.804Z,72.80
2019-02-17T23:06:19.719Z,72.90
2019-02-17T23:11:31.543Z,72.70
2019-02-17T23:16:43.578Z,73.00
2019-02-17T23:21:55.131Z,73.00
2019-02-17T23:27:07.076Z,72.90
2019-02-17T23:32:19.960Z,72.70
2019-02-17T23:37:31.290Z,73.00
2019-02-17T23:42:42.835Z,72.90
2019-02-17T23:47:54.501Z,72.80
2019-02-17T23:53:06.651Z,72.90
2019-02-17T23:58:18.568Z,72.90
